createdAt,value
2023-07-23T00:00:52.019Z,98961.40
2023-07-23T00:03:39.694Z,98967.20
2023-07-23T00:06:07.450Z,98958.60
2023-07-23T00:08:35.236Z,98960.40
2023-07-23T00:11:02.911Z,98956.00
2023-07-23T00:13:30.625Z,98957.80
2023-07-23T00:15:58.412Z,98958.40
2023-07-23T00:18:26.228Z,98956.80
2023-07-23T00:20:53.987Z,98956.00
2023-07-23T00:23:21.762Z,98949.80
2023-07-23T00:25:50.084Z,98947.20
2023-07-23T00:28:17.742Z,98944.60
2023-07-23T00:30:45.471Z,98946.20
2023-07-23T00:33:14.197Z,98943.80
2023-07-23T00:35:41.853Z,98941.00
2023-07-23T00:38:09.575Z,98938.00
2023-07-23T00:40:37.361Z,98937.20
2023-07-23T00:43:04.980Z,98937.40
2023-07-23T00:45:33.925Z,98930.80
2023-07-23T00:48:01.673Z,98934.60
2023-07-23T00:50:30.494Z,98932.40
2023-07-23T00:52:58.301Z,98924.80
2023-07-23T00:55:27.320Z,98926.80
2023-07-23T00:57:55.814Z,98925.20
2023-07-23T01:00:23.595Z,98926.80
2023-07-23T01:02:51.366Z,98927.80
2023-07-23T01:05:19.513Z,98931.00
2023-07-23T01:07:49.760Z,98927.00
2023-07-23T01:10:20.758Z,98927.60
2023-07-23T01:12:48.545Z,98924.60
2023-07-23T01:15:17.482Z,98924.40
2023-07-23T01:17:47.490Z,98922.20
2023-07-23T01:20:15.281Z,98920.60
2023-07-23T01:22:42.954Z,98920.60
2023-07-23T01:25:10.693Z,98915.60
2023-07-23T01:27:38.394Z,98914.60
2023-07-23T01:30:11.375Z,98914.00
2023-07-23T01:32:39.845Z,98915.80
2023-07-23T01:35:14.705Z,98908.60
2023-07-23T01:37:48.652Z,98912.60
2023-07-23T01:40:17.070Z,98907.40
2023-07-23T01:42:45.940Z,98902.40
2023-07-23T01:45:14.986Z,98905.00
2023-07-23T01:47:42.850Z,98901.00
2023-07-23T01:50:10.816Z,98896.40
2023-07-23T01:52:38.534Z,98891.80
2023-07-23T01:55:07.134Z,98892.80
2023-07-23T01:57:34.918Z,98889.40
2023-07-23T02:00:04.738Z,98894.40
2023-07-23T02:02:32.553Z,98899.40
2023-07-23T02:05:00.547Z,98890.80
2023-07-23T02:07:28.173Z,98894.80
2023-07-23T02:09:55.869Z,98889.60
2023-07-23T02:12:23.563Z,98893.60
2023-07-23T02:14:51.579Z,98897.80
2023-07-23T02:17:19.276Z,98894.20
2023-07-23T02:19:46.927Z,98887.80
2023-07-23T02:22:14.653Z,98890.20
2023-07-23T02:24:42.428Z,98886.60
2023-07-23T02:27:11.448Z,98884.00
2023-07-23T02:29:40.107Z,98885.60
2023-07-23T02:32:08.497Z,98887.60
2023-07-23T02:34:36.207Z,98890.00
2023-07-23T02:37:04.172Z,98888.60
2023-07-23T02:39:31.876Z,98889.60
2023-07-23T02:41:59.790Z,98880.20
2023-07-23T02:44:27.461Z,98881.00
2023-07-23T02:46:55.154Z,98885.80
2023-07-23T02:49:22.861Z,98886.60
2023-07-23T02:51:50.493Z,98881.80
2023-07-23T02:54:18.181Z,98883.20
2023-07-23T02:56:45.831Z,98882.00
2023-07-23T02:59:13.495Z,98879.80
2023-07-23T03:01:41.165Z,98878.00
2023-07-23T03:04:09.095Z,98881.80
2023-07-23T03:06:36.769Z,98881.60
2023-07-23T03:09:04.493Z,98880.00
2023-07-23T03:11:33.145Z,98881.40
2023-07-23T03:14:00.779Z,98888.60
2023-07-23T03:16:28.570Z,98884.40
2023-07-23T03:19:03.357Z,98883.60
2023-07-23T03:21:31.124Z,98884.80
2023-07-23T03:23:58.824Z,98888.60
2023-07-23T03:26:26.480Z,98891.40
2023-07-23T03:28:54.189Z,98890.00
2023-07-23T03:31:21.868Z,98884.40
2023-07-23T03:33:49.619Z,98885.20
2023-07-23T03:36:17.338Z,98889.20
2023-07-23T03:38:44.994Z,98887.20
2023-07-23T03:41:12.855Z,98883.00
2023-07-23T03:43:40.501Z,98881.40
2023-07-23T03:46:08.269Z,98882.00
2023-07-23T03:48:35.927Z,98877.20
2023-07-23T03:51:03.643Z,98876.00
2023-07-23T03:53:31.409Z,98876.00
2023-07-23T03:55:59.073Z,98874.80
2023-07-23T03:58:26.749Z,98876.60
2023-07-23T04:00:54.439Z,98874.20
2023-07-23T04:03:22.233Z,98873.20
2023-07-23T04:05:49.942Z,98876.00
2023-07-23T04:08:17.597Z,98876.20
2023-07-23T04:10:45.643Z,98875.40
2023-07-23T04:13:13.386Z,98874.40
2023-07-23T04:15:41.036Z,98880.00
2023-07-23T04:18:14.849Z,98879.00
2023-07-23T04:20:42.884Z,98875.20
2023-07-23T04:23:10.566Z,98872.60
2023-07-23T04:25:38.917Z,98870.20
2023-07-23T04:28:06.583Z,98874.40
2023-07-23T04:30:34.934Z,98865.40
2023-07-23T04:33:03.150Z,98868.00
2023-07-23T04:35:30.942Z,98868.60
2023-07-23T04:37:58.591Z,98870.60
2023-07-23T04:40:26.330Z,98871.40
2023-07-23T04:42:54.016Z,98865.80
2023-07-23T04:45:21.692Z,98869.40
2023-07-23T04:47:49.371Z,98870.20
2023-07-23T04:50:17.194Z,98869.20
2023-07-23T04:52:44.935Z,98859.80
2023-07-23T04:55:12.666Z,98860.00
2023-07-23T04:57:40.377Z,98858.00
2023-07-23T05:00:08.759Z,98853.20
2023-07-23T05:02:36.477Z,98856.40
2023-07-23T05:05:04.541Z,98853.20
2023-07-23T05:07:32.240Z,98851.80
2023-07-23T05:09:59.970Z,98854.00
2023-07-23T05:12:28.240Z,98857.20
2023-07-23T05:15:11.757Z,98865.40
2023-07-23T05:17:41.202Z,98866.00
2023-07-23T05:20:10.248Z,98861.20
2023-07-23T05:22:40.333Z,98862.60
2023-07-23T05:25:09.256Z,98865.00
2023-07-23T05:27:37.149Z,98862.80
2023-07-23T05:30:05.904Z,98856.80
2023-07-23T05:32:34.280Z,98857.60
2023-07-23T05:35:02.345Z,98856.00
2023-07-23T05:37:29.962Z,98855.00
2023-07-23T05:39:57.559Z,98857.20
2023-07-23T05:42:25.240Z,98856.00
2023-07-23T05:44:52.897Z,98856.60
2023-07-23T05:47:20.554Z,98859.00
2023-07-23T05:49:48.196Z,98860.00
2023-07-23T05:52:16.355Z,98861.60
2023-07-23T05:54:44.075Z,98861.20
2023-07-23T05:57:11.735Z,98857.40
2023-07-23T05:59:39.411Z,98863.40
2023-07-23T06:02:07.226Z,98861.00
2023-07-23T06:04:35.292Z,98863.80
2023-07-23T06:07:03.157Z,98860.00
2023-07-23T06:09:30.810Z,98858.20
2023-07-23T06:11:58.434Z,98861.80
2023-07-23T06:14:26.296Z,98860.20
2023-07-23T06:16:54.390Z,98852.80
2023-07-23T06:19:22.483Z,98852.00
2023-07-23T06:21:50.220Z,98851.80
2023-07-23T06:24:17.907Z,98848.40
2023-07-23T06:26:45.596Z,98846.40
2023-07-23T06:29:13.227Z,98843.40
2023-07-23T06:31:41.052Z,98839.40
2023-07-23T06:34:10.480Z,98839.60
2023-07-23T06:36:38.227Z,98837.60
2023-07-23T06:39:05.874Z,98839.40
2023-07-23T06:41:33.959Z,98833.40
2023-07-23T06:44:01.709Z,98830.20
2023-07-23T06:46:29.490Z,98827.00
2023-07-23T06:48:57.224Z,98819.20
2023-07-23T06:51:26.913Z,98817.20
2023-07-23T06:53:54.970Z,98814.00
2023-07-23T06:56:22.627Z,98812.20
2023-07-23T06:58:50.392Z,98810.80
2023-07-23T07:01:18.004Z,98817.00
2023-07-23T07:03:45.784Z,98809.60
2023-07-23T07:06:13.599Z,98803.00
2023-07-23T07:08:41.273Z,98809.60
2023-07-23T07:11:11.308Z,98807.00
2023-07-23T07:13:39.909Z,98807.20
2023-07-23T07:16:07.604Z,98811.40
2023-07-23T07:18:35.424Z,98801.80
2023-07-23T07:21:03.395Z,98796.20
2023-07-23T07:23:32.450Z,98794.80
2023-07-23T07:26:01.982Z,98784.40
2023-07-23T07:28:33.398Z,98783.60
2023-07-23T07:31:03.003Z,98782.00
2023-07-23T07:33:31.381Z,98781.80
2023-07-23T07:36:01.505Z,98782.40
2023-07-23T07:38:29.504Z,98787.80
2023-07-23T07:40:58.838Z,98787.00
2023-07-23T07:43:26.913Z,98790.60
2023-07-23T07:45:59.500Z,98791.80
2023-07-23T07:48:31.745Z,98794.20
2023-07-23T07:51:05.727Z,98786.80
2023-07-23T07:53:36.408Z,98796.60
2023-07-23T07:56:05.485Z,98792.00
2023-07-23T07:58:34.186Z,98791.20
2023-07-23T08:01:05.551Z,98787.80
2023-07-23T08:03:34.728Z,98796.20
2023-07-23T08:06:03.203Z,98789.80
2023-07-23T08:08:34.582Z,98794.00
2023-07-23T08:11:04.689Z,98782.60
2023-07-23T08:13:33.234Z,98787.00
2023-07-23T08:16:01.548Z,98782.20
2023-07-23T08:18:29.576Z,98785.20
2023-07-23T08:20:58.739Z,98773.40
2023-07-23T08:23:27.234Z,98769.80
2023-07-23T08:25:59.543Z,98766.40
2023-07-23T08:28:30.568Z,98772.20
2023-07-23T08:31:01.483Z,98762.80
2023-07-23T08:33:33.396Z,98765.20
2023-07-23T08:36:02.867Z,98758.00
2023-07-23T08:38:31.949Z,98752.20
2023-07-23T08:41:04.646Z,98752.40
2023-07-23T08:44:06.735Z,98748.80
2023-07-23T08:46:46.706Z,98752.60
2023-07-23T08:49:18.716Z,98747.00
2023-07-23T08:51:49.108Z,98749.60
2023-07-23T08:54:20.435Z,98752.20
2023-07-23T08:56:48.218Z,98746.40
2023-07-23T08:59:15.926Z,98748.40
2023-07-23T09:01:44.406Z,98745.40
2023-07-23T09:04:14.535Z,98744.00
2023-07-23T09:06:47.123Z,98741.80
2023-07-23T09:09:15.423Z,98743.40
2023-07-23T09:11:43.597Z,98745.00
2023-07-23T09:14:17.312Z,98742.80
2023-07-23T09:16:49.333Z,98750.80
2023-07-23T09:19:27.844Z,98752.20
2023-07-23T09:21:59.199Z,98758.20
2023-07-23T09:24:34.768Z,98754.00
2023-07-23T09:27:03.973Z,98748.20
2023-07-23T09:29:37.578Z,98749.60
2023-07-23T09:32:16.131Z,98743.40
2023-07-23T09:34:47.658Z,98744.60
2023-07-23T09:37:18.783Z,98741.80
2023-07-23T09:39:46.498Z,98738.60
2023-07-23T09:42:14.887Z,98740.40
2023-07-23T09:44:43.151Z,98736.20
2023-07-23T09:47:10.891Z,98731.60
2023-07-23T09:49:39.076Z,98733.40
2023-07-23T09:52:10.485Z,98737.80
2023-07-23T09:54:38.508Z,98734.40
2023-07-23T09:57:08.549Z,98720.80
2023-07-23T09:59:37.676Z,98718.60
2023-07-23T10:02:09.854Z,98711.00
2023-07-23T10:04:39.298Z,98713.00
2023-07-23T10:07:08.421Z,98713.20
2023-07-23T10:09:37.138Z,98716.60
2023-07-23T10:12:06.230Z,98714.80
2023-07-23T10:14:33.925Z,98714.00
2023-07-23T10:19:31.151Z,98718.00
2023-07-23T10:21:59.009Z,98713.20
2023-07-23T10:24:52.827Z,98721.20
2023-07-23T10:27:21.124Z,98721.20
2023-07-23T10:30:19.498Z,98725.60
2023-07-23T10:33:11.801Z,98717.20
2023-07-23T10:35:56.000Z,98718.40
2023-07-23T10:38:30.250Z,98712.00
2023-07-23T10:40:59.429Z,98707.60
2023-07-23T10:43:45.149Z,98702.20
2023-07-23T10:46:19.714Z,98701.80
2023-07-23T10:48:53.686Z,98703.20
2023-07-23T10:51:25.060Z,98698.20
2023-07-23T10:53:55.521Z,98697.60
2023-07-23T10:56:34.743Z,98691.60
2023-07-23T10:59:09.052Z,98686.80
2023-07-23T11:01:42.415Z,98679.80
2023-07-23T11:04:15.954Z,98683.80
2023-07-23T11:07:08.044Z,98674.40
2023-07-23T11:09:38.627Z,98677.20
2023-07-23T11:12:07.337Z,98670.80
2023-07-23T11:14:36.160Z,98663.20
2023-07-23T11:17:05.815Z,98655.00
2023-07-23T11:19:33.731Z,98651.00
2023-07-23T11:22:06.074Z,98645.60
2023-07-23T11:24:34.782Z,98648.40
2023-07-23T11:27:04.618Z,98643.20
2023-07-23T11:29:35.159Z,98644.60
2023-07-23T11:32:04.605Z,98646.60
2023-07-23T11:34:32.756Z,98639.80
2023-07-23T11:37:00.535Z,98643.00
2023-07-23T11:39:28.399Z,98637.40
2023-07-23T11:41:56.132Z,98639.80
2023-07-23T11:44:24.061Z,98634.40
2023-07-23T11:47:02.875Z,98620.60
2023-07-23T11:49:30.800Z,98629.60
2023-07-23T11:52:00.054Z,98624.40
2023-07-23T11:54:27.934Z,98610.20
2023-07-23T11:56:55.698Z,98613.40
2023-07-23T11:59:23.537Z,98608.20
2023-07-23T12:01:58.022Z,98596.80
2023-07-23T12:04:25.959Z,98611.80
2023-07-23T12:06:53.763Z,98606.20
2023-07-23T12:09:21.504Z,98604.20
2023-07-23T12:11:49.444Z,98601.00
2023-07-23T12:14:17.158Z,98604.00
2023-07-23T12:16:48.146Z,98595.80
2023-07-23T12:19:22.701Z,98594.80
2023-07-23T12:21:56.128Z,98593.60
2023-07-23T12:24:30.099Z,98586.20
2023-07-23T12:27:01.667Z,98580.20
2023-07-23T12:29:29.981Z,98580.20
2023-07-23T12:32:19.130Z,98576.20
2023-07-23T12:34:54.386Z,98575.20
2023-07-23T12:37:24.827Z,98572.00
2023-07-23T12:40:13.091Z,98569.80
2023-07-23T12:42:50.416Z,98570.00
2023-07-23T12:45:22.047Z,98565.60
2023-07-23T12:47:50.327Z,98570.00
2023-07-23T12:50:18.792Z,98567.20
2023-07-23T12:52:46.643Z,98566.40
2023-07-23T12:55:14.808Z,98558.20
2023-07-23T12:57:42.524Z,98554.40
2023-07-23T13:00:11.434Z,98541.00
2023-07-23T13:02:39.162Z,98547.00
2023-07-23T13:05:07.472Z,98543.40
2023-07-23T13:07:35.206Z,98549.80
2023-07-23T13:10:03.768Z,98549.40
2023-07-23T13:12:31.477Z,98536.80
2023-07-23T13:14:59.105Z,98541.40
2023-07-23T13:17:26.902Z,98537.40
2023-07-23T13:19:54.669Z,98537.80
2023-07-23T13:22:22.426Z,98532.40
2023-07-23T13:24:50.087Z,98531.00
2023-07-23T13:27:18.051Z,98526.40
2023-07-23T13:29:45.650Z,98521.40
2023-07-23T13:32:13.320Z,98524.60
2023-07-23T13:34:40.948Z,98517.40
2023-07-23T13:37:08.770Z,98517.80
2023-07-23T13:39:36.436Z,98518.00
2023-07-23T13:42:04.690Z,98520.40
2023-07-23T13:44:33.423Z,98516.00
2023-07-23T13:47:01.171Z,98516.20
2023-07-23T13:49:28.883Z,98515.40
2023-07-23T13:51:57.109Z,98507.80
2023-07-23T13:54:24.886Z,98510.20
2023-07-23T13:56:52.773Z,98511.60
2023-07-23T13:59:20.561Z,98514.60
2023-07-23T14:01:48.249Z,98499.60
2023-07-23T14:04:15.973Z,98504.00
2023-07-23T14:06:43.707Z,98501.60
2023-07-23T14:09:12.914Z,98500.20
2023-07-23T14:11:41.797Z,98495.60
2023-07-23T14:14:09.885Z,98494.00
2023-07-23T14:16:37.663Z,98506.00
2023-07-23T14:19:05.484Z,98500.80
2023-07-23T14:21:33.198Z,98490.80
2023-07-23T14:24:00.997Z,98490.40
2023-07-23T14:26:28.689Z,98488.20
2023-07-23T14:28:56.392Z,98485.00
2023-07-23T14:31:24.291Z,98482.40
2023-07-23T14:33:52.270Z,98475.60
2023-07-23T14:36:20.202Z,98476.20
2023-07-23T14:38:47.990Z,98474.60
2023-07-23T14:41:15.686Z,98473.20
2023-07-23T14:43:43.684Z,98468.80
2023-07-23T14:46:11.422Z,98465.40
2023-07-23T14:48:39.489Z,98456.60
2023-07-23T14:51:07.985Z,98456.00
2023-07-23T14:53:35.732Z,98452.40
2023-07-23T14:56:03.550Z,98449.40
2023-07-23T14:58:31.395Z,98451.80
2023-07-23T15:00:59.041Z,98448.00
2023-07-23T15:03:27.363Z,98440.00
2023-07-23T15:05:55.438Z,98437.60
2023-07-23T15:08:23.255Z,98436.00
2023-07-23T15:10:51.068Z,98438.60
2023-07-23T15:13:19.415Z,98432.80
2023-07-23T15:15:47.432Z,98432.60
2023-07-23T15:18:15.480Z,98432.20
2023-07-23T15:20:43.539Z,98423.80
2023-07-23T15:23:11.683Z,98427.60
2023-07-23T15:25:39.950Z,98427.80
2023-07-23T15:28:10.570Z,98425.60
2023-07-23T15:30:38.437Z,98419.20
2023-07-23T15:33:06.202Z,98425.00
2023-07-23T15:35:33.931Z,98425.40
2023-07-23T15:38:01.917Z,98422.80
2023-07-23T15:40:29.668Z,98420.40
2023-07-23T15:42:57.338Z,98416.40
2023-07-23T15:45:25.786Z,98421.00
2023-07-23T15:47:53.490Z,98418.00
2023-07-23T15:50:21.304Z,98422.00
2023-07-23T15:52:48.964Z,98416.80
2023-07-23T15:55:17.425Z,98415.60
2023-07-23T15:57:46.133Z,98416.60
2023-07-23T16:00:14.134Z,98415.40
2023-07-23T16:02:41.829Z,98407.40
2023-07-23T16:05:09.892Z,98400.80
2023-07-23T16:07:37.697Z,98395.00
2023-07-23T16:10:05.683Z,98393.20
2023-07-23T16:12:33.390Z,98392.40
2023-07-23T16:15:02.520Z,98391.20
2023-07-23T16:17:30.226Z,98393.80
2023-07-23T16:19:57.894Z,98393.00
2023-07-23T16:22:25.772Z,98388.20
2023-07-23T16:24:53.606Z,98386.80
2023-07-23T16:27:26.344Z,98382.40
2023-07-23T16:29:54.117Z,98379.60
2023-07-23T16:32:22.394Z,98377.20
2023-07-23T16:34:50.508Z,98379.80
2023-07-23T16:37:19.574Z,98379.00
2023-07-23T16:39:48.445Z,98376.60
2023-07-23T16:42:19.462Z,98372.40
2023-07-23T16:44:47.632Z,98374.40
2023-07-23T16:47:15.289Z,98377.00
2023-07-23T16:49:42.995Z,98373.00
2023-07-23T16:52:10.647Z,98372.40
2023-07-23T16:54:38.346Z,98373.00
2023-07-23T16:57:06.809Z,98372.20
2023-07-23T16:59:34.582Z,98373.00
2023-07-23T17:02:02.246Z,98372.60
2023-07-23T17:04:29.923Z,98368.00
2023-07-23T17:06:57.678Z,98377.80
2023-07-23T17:09:25.404Z,98372.00
2023-07-23T17:11:53.152Z,98365.40
2023-07-23T17:14:20.813Z,98370.60
2023-07-23T17:16:48.537Z,98369.40
2023-07-23T17:19:17.461Z,98364.40
2023-07-23T17:21:45.126Z,98368.40
2023-07-23T17:24:12.906Z,98362.20
2023-07-23T17:26:40.991Z,98365.20
2023-07-23T17:29:08.753Z,98365.40
2023-07-23T17:31:36.447Z,98364.00
2023-07-23T17:34:04.240Z,98364.40
2023-07-23T17:36:32.141Z,98366.60
2023-07-23T17:39:00.037Z,98363.80
2023-07-23T17:41:27.736Z,98361.20
2023-07-23T17:43:55.365Z,98363.00
2023-07-23T17:46:23.097Z,98363.80
2023-07-23T17:48:50.892Z,98365.40
2023-07-23T17:51:18.570Z,98375.40
2023-07-23T17:53:46.367Z,98371.80
2023-07-23T17:56:14.060Z,98370.00
2023-07-23T17:58:43.003Z,98373.00
2023-07-23T18:01:27.903Z,98371.60
2023-07-23T18:03:57.422Z,98375.00
2023-07-23T18:06:25.294Z,98367.60
2023-07-23T18:08:52.974Z,98364.00
2023-07-23T18:11:20.693Z,98355.80
2023-07-23T18:13:48.385Z,98360.80
2023-07-23T18:16:16.269Z,98359.20
2023-07-23T18:18:44.031Z,98357.20
2023-07-23T18:21:11.750Z,98365.40
2023-07-23T18:23:39.494Z,98368.20
2023-07-23T18:26:07.354Z,98362.40
2023-07-23T18:28:37.381Z,98360.20
2023-07-23T18:31:15.175Z,98355.40
2023-07-23T18:33:55.787Z,98362.40
2023-07-23T18:36:23.549Z,98361.20
2023-07-23T18:38:51.164Z,98359.00
2023-07-23T18:41:18.879Z,98360.00
2023-07-23T18:43:49.465Z,98358.80
2023-07-23T18:46:17.249Z,98358.40
2023-07-23T18:48:44.951Z,98356.00
2023-07-23T18:51:12.571Z,98355.20
2023-07-23T18:53:40.324Z,98359.40
2023-07-23T18:56:08.041Z,98357.00
2023-07-23T18:58:35.753Z,98362.20
2023-07-23T19:01:03.465Z,98357.40
2023-07-23T19:03:31.295Z,98355.60
2023-07-23T19:05:59.007Z,98361.60
2023-07-23T19:08:26.732Z,98364.40
2023-07-23T19:10:54.502Z,98363.00
2023-07-23T19:13:22.460Z,98365.00
2023-07-23T19:15:50.254Z,98366.60
2023-07-23T19:18:18.123Z,98364.60
2023-07-23T19:20:45.975Z,98363.40
2023-07-23T19:23:13.653Z,98365.60
2023-07-23T19:25:41.356Z,98371.20
2023-07-23T19:28:09.140Z,98380.80
2023-07-23T19:30:39.327Z,98377.00
2023-07-23T19:33:07.543Z,98377.00
2023-07-23T19:35:35.298Z,98378.40
2023-07-23T19:38:03.223Z,98381.00
2023-07-23T19:40:30.904Z,98382.20
2023-07-23T19:42:58.608Z,98382.00
2023-07-23T19:45:26.346Z,98381.20
2023-07-23T19:47:54.105Z,98384.00
2023-07-23T19:50:23.425Z,98384.60
2023-07-23T19:52:51.389Z,98382.40
2023-07-23T19:55:19.036Z,98383.40
2023-07-23T19:57:46.841Z,98379.80
2023-07-23T20:00:14.783Z,98384.20
2023-07-23T20:02:42.556Z,98384.60
2023-07-23T20:05:10.384Z,98392.20
2023-07-23T20:07:38.055Z,98395.20
2023-07-23T20:10:06.660Z,98392.00
2023-07-23T20:12:34.406Z,98385.60
2023-07-23T20:15:02.017Z,98388.40
2023-07-23T20:17:29.828Z,98390.80
2023-07-23T20:19:57.478Z,98391.00
2023-07-23T20:22:25.181Z,98395.00
2023-07-23T20:24:52.999Z,98393.20
2023-07-23T20:27:20.763Z,98392.20
2023-07-23T20:29:48.759Z,98389.00
2023-07-23T20:32:16.893Z,98392.00
2023-07-23T20:34:44.997Z,98396.60
2023-07-23T20:37:14.978Z,98399.20
2023-07-23T20:39:44.410Z,98405.60
2023-07-23T20:42:13.370Z,98403.20
2023-07-23T20:44:43.745Z,98398.80
2023-07-23T20:47:11.734Z,98398.60
2023-07-23T20:49:39.421Z,98396.60
2023-07-23T20:52:07.223Z,98397.80
2023-07-23T20:54:35.058Z,98400.60
2023-07-23T20:57:03.556Z,98407.60
2023-07-23T20:59:31.248Z,98410.80
2023-07-23T21:01:58.967Z,98413.20
2023-07-23T21:04:26.901Z,98412.40
2023-07-23T21:06:54.749Z,98408.00
2023-07-23T21:09:22.449Z,98404.80
2023-07-23T21:11:50.264Z,98391.80
2023-07-23T21:14:17.982Z,98386.40
2023-07-23T21:16:45.742Z,98381.40
2023-07-23T21:19:14.525Z,98377.80
2023-07-23T21:21:42.197Z,98375.80
2023-07-23T21:24:09.875Z,98379.00
2023-07-23T21:26:39.418Z,98383.80
2023-07-23T21:29:10.462Z,98383.40
2023-07-23T21:31:38.631Z,98383.00
2023-07-23T21:34:06.355Z,98391.40
2023-07-23T21:36:34.009Z,98391.80
2023-07-23T21:39:01.756Z,98400.20
2023-07-23T21:41:29.417Z,98402.60
2023-07-23T21:43:57.128Z,98395.40
2023-07-23T21:46:24.954Z,98391.40
2023-07-23T21:48:52.618Z,98392.60
2023-07-23T21:51:20.355Z,98393.80
2023-07-23T21:53:48.068Z,98398.20
2023-07-23T21:56:15.903Z,98402.60
2023-07-23T21:58:43.601Z,98402.20
2023-07-23T22:01:11.272Z,98394.00
2023-07-23T22:03:39.179Z,98393.80
2023-07-23T22:06:08.734Z,98389.20
2023-07-23T22:08:36.381Z,98394.40
2023-07-23T22:11:04.242Z,98390.80
2023-07-23T22:13:31.978Z,98391.60
2023-07-23T22:15:59.763Z,98394.00
2023-07-23T22:18:27.598Z,98393.80
2023-07-23T22:20:55.346Z,98391.60
2023-07-23T22:23:23.091Z,98386.60
2023-07-23T22:25:52.685Z,98389.40
2023-07-23T22:28:20.337Z,98389.00
2023-07-23T22:30:48.329Z,98388.40
2023-07-23T22:33:15.961Z,98393.60
2023-07-23T22:35:43.606Z,98397.20
2023-07-23T22:38:11.333Z,98410.80
2023-07-23T22:40:38.962Z,98412.40
2023-07-23T22:43:06.703Z,98415.00
2023-07-23T22:45:34.525Z,98422.20
2023-07-23T22:48:02.403Z,98420.80
2023-07-23T22:50:30.811Z,98425.40
2023-07-23T22:52:58.673Z,98418.80
2023-07-23T22:55:28.485Z,98420.40
2023-07-23T22:57:56.768Z,98416.20
2023-07-23T23:00:24.690Z,98424.20
2023-07-23T23:02:52.939Z,98406.40
2023-07-23T23:05:21.474Z,98409.80
2023-07-23T23:07:49.486Z,98402.20
2023-07-23T23:10:17.273Z,98398.00
2023-07-23T23:12:44.997Z,98403.40
2023-07-23T23:15:12.648Z,98403.00
2023-07-23T23:17:40.435Z,98404.00
2023-07-23T23:20:08.798Z,98403.60
2023-07-23T23:22:36.424Z,98400.40
2023-07-23T23:25:04.562Z,98402.20
2023-07-23T23:27:33.296Z,98401.40
2023-07-23T23:30:01.020Z,98399.60
2023-07-23T23:32:29.880Z,98401.40
2023-07-23T23:34:57.605Z,98399.60
2023-07-23T23:37:25.322Z,98401.60
2023-07-23T23:39:52.993Z,98404.40
2023-07-23T23:42:20.685Z,98401.80
2023-07-23T23:44:48.820Z,98399.40
2023-07-23T23:47:16.551Z,98400.20
2023-07-23T23:49:44.358Z,98395.40
2023-07-23T23:52:11.987Z,98394.20
2023-07-23T23:54:39.698Z,98389.00
2023-07-23T23:57:07.777Z,98390.40
2023-07-23T23:59:35.494Z,98388.40
